Time;durP1;ratioP1;P1;durP2;ratioP2;P2;SDS_P1;SDS_P2;PMS_P1;PMS_P2;Temp;Humidity;BMP_temperature;BMP_pressure;BME280_temperature;BME280_humidity;BME280_pressure;Samples;Min_cycle;Max_cycle;Signal;HPM_P1;HPM_P2
2021/10/09 00:00:05;;;;;;;17.00;11.67;;;8.50;99.90;;;;;;5070561;28;20712;-67
2021/10/09 00:02:32;;;;;;;17.20;12.87;;;8.50;99.90;;;;;;5070523;28;20746;-67
2021/10/09 00:04:58;;;;;;;15.33;12.53;;;8.40;99.90;;;;;;5070564;28;20208;-68
2021/10/09 00:07:26;;;;;;;17.17;12.00;;;8.30;99.90;;;;;;5070686;28;20209;-66
2021/10/09 00:09:58;;;;;;;17.40;11.97;;;8.30;99.90;;;;;;5071586;28;20220;-67
2021/10/09 00:12:26;;;;;;;16.77;13.20;;;8.30;99.90;;;;;;5074672;28;20213;-68
2021/10/09 00:14:53;;;;;;;18.23;13.03;;;8.30;99.90;;;;;;5074090;28;20212;-68
2021/10/09 00:17:21;;;;;;;16.87;11.60;;;8.30;99.90;;;;;;5076203;28;20232;-67
2021/10/09 00:19:48;;;;;;;13.47;10.90;;;8.30;99.90;;;;;;5074649;28;20320;-67
2021/10/09 00:22:14;;;;;;;13.87;11.53;;;8.30;99.90;;;;;;5074479;28;20209;-68
2021/10/09 00:24:41;;;;;;;14.23;10.67;;;8.30;99.90;;;;;;5074672;28;20291;-67
2021/10/09 00:27:10;;;;;;;16.63;11.13;;;8.30;99.90;;;;;;5074286;28;20201;-67
2021/10/09 00:29:37;;;;;;;13.90;11.07;;;8.30;99.90;;;;;;5094206;22;20233;-66
2021/10/09 00:32:04;;;;;;;12.27;10.27;;;8.30;99.90;;;;;;5055082;28;20206;-66
2021/10/09 00:34:31;;;;;;;16.70;10.73;;;8.30;99.90;;;;;;5054686;28;20206;-66
2021/10/09 00:36:57;;;;;;;13.90;10.77;;;8.30;99.90;;;;;;5054793;28;20226;-66
2021/10/09 00:39:24;;;;;;;12.27;10.17;;;8.30;99.90;;;;;;5054968;28;20213;-67
2021/10/09 00:41:51;;;;;;;15.90;10.70;;;8.30;99.90;;;;;;5054634;28;20665;-67
2021/10/09 00:44:19;;;;;;;14.70;10.53;;;8.30;99.90;;;;;;5054627;28;20209;-63
2021/10/09 00:46:46;;;;;;;15.23;10.63;;;8.30;99.90;;;;;;5054329;28;20734;-66
2021/10/09 00:49:15;;;;;;;15.60;10.07;;;8.20;99.90;;;;;;5054271;28;20209;-67
2021/10/09 00:51:43;;;;;;;11.80;10.50;;;8.20;99.90;;;;;;5054917;28;20202;-67
2021/10/09 00:54:10;;;;;;;13.90;10.73;;;8.20;99.90;;;;;;5054294;28;20208;-67
2021/10/09 00:56:39;;;;;;;14.07;10.87;;;8.20;99.90;;;;;;5054572;28;20271;-67
2021/10/09 00:59:06;;;;;;;15.00;10.63;;;8.20;99.90;;;;;;5055000;28;20225;-65
2021/10/09 01:01:35;;;;;;;13.50;10.27;;;8.10;99.90;;;;;;5054568;28;20233;-65
2021/10/09 01:04:05;;;;;;;14.83;10.60;;;8.10;99.90;;;;;;5054905;28;20209;-68
2021/10/09 01:06:32;;;;;;;12.63;9.67;;;8.20;99.90;;;;;;5054642;28;20197;-66
2021/10/09 01:08:59;;;;;;;12.97;10.57;;;8.10;99.90;;;;;;5054287;28;20700;-66
2021/10/09 01:11:26;;;;;;;16.13;10.63;;;8.10;99.90;;;;;;5054947;28;20728;-65
2021/10/09 01:13:52;;;;;;;13.13;10.47;;;8.10;99.90;;;;;;5055001;28;20591;-66
2021/10/09 01:16:20;;;;;;;13.47;9.57;;;8.00;99.90;;;;;;5054476;28;20591;-66
2021/10/09 01:18:53;;;;;;;13.30;10.67;;;8.00;99.90;;;;;;5054338;28;20683;-65
2021/10/09 01:21:22;;;;;;;22.67;17.70;;;8.00;99.90;;;;;;5052943;28;20229;-65
2021/10/09 01:23:50;;;;;;;18.10;12.30;;;8.00;99.90;;;;;;5054034;28;20209;-67
2021/10/09 01:26:17;;;;;;;11.60;9.97;;;8.00;99.90;;;;;;5054344;28;20206;-67
2021/10/09 01:28:46;;;;;;;15.83;10.73;;;7.90;99.90;;;;;;5053645;28;20210;-66
2021/10/09 01:31:13;;;;;;;14.70;10.63;;;7.90;99.90;;;;;;5053502;28;20721;-65
2021/10/09 01:33:41;;;;;;;14.67;10.77;;;7.90;99.90;;;;;;5053572;28;20213;-66
2021/10/09 01:36:08;;;;;;;15.20;10.87;;;7.90;99.90;;;;;;5053352;28;20213;-67
2021/10/09 01:38:38;;;;;;;12.07;9.90;;;7.90;99.90;;;;;;5053469;28;20663;-66
2021/10/09 01:41:06;;;;;;;11.67;10.20;;;7.90;99.90;;;;;;5053342;28;20261;-67
2021/10/09 01:43:33;;;;;;;16.37;11.03;;;7.80;99.90;;;;;;5053293;28;20212;-65
2021/10/09 01:46:00;;;;;;;14.33;10.70;;;7.90;99.90;;;;;;5053576;28;20240;-65
2021/10/09 01:48:31;;;;;;;16.20;10.93;;;7.80;99.90;;;;;;5053506;28;20282;-66
2021/10/09 01:50:59;;;;;;;12.83;10.37;;;7.80;99.90;;;;;;5053568;28;20279;-66
2021/10/09 01:53:26;;;;;;;12.67;9.97;;;7.80;99.90;;;;;;5053396;28;20220;-67
2021/10/09 01:55:54;;;;;;;14.13;9.87;;;7.80;99.90;;;;;;5053582;28;20573;-66
2021/10/09 01:58:21;;;;;;;16.27;10.37;;;7.80;99.90;;;;;;5053063;28;20225;-67
2021/10/09 02:00:48;;;;;;;13.73;10.37;;;7.70;99.90;;;;;;5052677;28;20740;-65
2021/10/09 02:03:18;;;;;;;14.23;10.63;;;7.70;99.90;;;;;;5052817;28;20212;-65
2021/10/09 02:05:44;;;;;;;14.63;10.00;;;7.70;99.90;;;;;;5052576;28;20300;-66
2021/10/09 02:08:11;;;;;;;13.23;10.27;;;7.70;99.90;;;;;;5052911;28;20224;-66
2021/10/09 02:10:46;;;;;;;13.00;10.37;;;7.70;99.90;;;;;;5052657;28;20732;-65
2021/10/09 02:13:18;;;;;;;14.37;10.97;;;7.70;99.90;;;;;;5052798;28;20208;-66
2021/10/09 02:15:47;;;;;;;13.50;10.27;;;7.70;99.90;;;;;;5052598;28;20292;-66
2021/10/09 02:26:27;;;;;;;18.17;11.80;;;7.70;99.90;;;;;;5052606;28;20633;-66
2021/10/09 02:28:55;;;;;;;13.77;11.00;;;7.70;99.90;;;;;;5052435;28;20678;-67
2021/10/09 02:31:22;;;;;;;14.17;11.40;;;7.70;99.90;;;;;;5052250;28;20241;-67
2021/10/09 02:33:48;;;;;;;15.33;11.10;;;7.70;99.90;;;;;;5052531;28;20205;-65
2021/10/09 02:36:15;;;;;;;14.50;11.37;;;7.70;99.90;;;;;;5052233;28;20209;-65
2021/10/09 02:38:42;;;;;;;20.00;11.70;;;7.60;99.90;;;;;;5052696;28;20768;-67
2021/10/09 02:41:08;;;;;;;14.10;10.93;;;7.60;99.90;;;;;;5052683;28;20233;-66
2021/10/09 02:43:35;;;;;;;15.40;10.43;;;7.60;99.90;;;;;;5052656;28;20213;-65
2021/10/09 02:46:03;;;;;;;14.90;10.10;;;7.60;99.90;;;;;;5052496;28;20210;-66
2021/10/09 02:48:30;;;;;;;13.63;10.70;;;7.60;99.90;;;;;;5052303;28;20212;-68
2021/10/09 02:50:57;;;;;;;14.87;9.97;;;7.70;99.90;;;;;;5052036;28;20318;-66
2021/10/09 02:53:24;;;;;;;34.97;25.37;;;7.60;99.90;;;;;;5052099;28;20272;-66
2021/10/09 02:55:51;;;;;;;32.17;21.73;;;7.60;99.90;;;;;;5052628;28;20201;-65
2021/10/09 02:58:18;;;;;;;22.33;16.07;;;7.60;99.90;;;;;;5052047;28;20225;-66
2021/10/09 03:00:44;;;;;;;15.30;12.27;;;7.60;99.90;;;;;;5052044;28;20320;-66
2021/10/09 03:03:12;;;;;;;16.50;10.97;;;7.60;99.90;;;;;;5052372;28;20632;-66
2021/10/09 03:05:39;;;;;;;14.30;10.63;;;7.60;99.90;;;;;;5052179;28;20212;-65
2021/10/09 03:08:06;;;;;;;11.93;9.77;;;7.50;99.90;;;;;;5052199;28;20209;-65
2021/10/09 03:10:33;;;;;;;16.07;10.73;;;7.50;99.90;;;;;;5051917;28;20221;-67
2021/10/09 03:13:00;;;;;;;12.87;10.13;;;7.50;99.90;;;;;;5051918;28;20255;-65
2021/10/09 03:15:27;;;;;;;14.90;10.47;;;7.40;99.90;;;;;;5052032;28;20206;-66
2021/10/09 03:17:53;;;;;;;13.50;10.53;;;7.40;99.90;;;;;;5051732;28;20225;-66
2021/10/09 03:20:21;;;;;;;15.53;10.37;;;7.40;99.90;;;;;;5051423;28;20228;-65
2021/10/09 03:22:48;;;;;;;14.90;10.13;;;7.40;99.90;;;;;;5052134;28;20210;-64
2021/10/09 03:25:16;;;;;;;14.27;10.30;;;7.30;99.90;;;;;;5051564;28;20209;-65
2021/10/09 03:27:43;;;;;;;12.60;9.93;;;7.30;99.90;;;;;;5051341;28;20202;-67
2021/10/09 03:30:10;;;;;;;16.47;10.50;;;7.30;99.90;;;;;;5051913;28;20239;-66
2021/10/09 03:32:38;;;;;;;12.27;10.10;;;7.30;99.90;;;;;;5051637;28;20704;-65
2021/10/09 03:35:06;;;;;;;14.70;10.87;;;7.30;99.90;;;;;;5051312;28;20213;-65
2021/10/09 03:37:34;;;;;;;15.23;10.07;;;7.20;99.90;;;;;;5051414;28;20593;-66
2021/10/09 03:40:03;;;;;;;13.03;9.90;;;7.20;99.90;;;;;;5051152;28;20279;-68
2021/10/09 03:42:34;;;;;;;12.50;10.23;;;7.20;99.90;;;;;;5051203;28;20289;-66
2021/10/09 03:45:05;;;;;;;14.67;10.37;;;7.20;99.90;;;;;;5050404;28;20605;-66
2021/10/09 03:47:46;;;;;;;14.17;9.90;;;7.10;99.90;;;;;;5051306;28;20202;-67
2021/10/09 03:50:21;;;;;;;12.50;9.67;;;7.10;99.90;;;;;;5051409;28;20358;-67
2021/10/09 03:52:48;;;;;;;11.53;9.20;;;7.10;99.90;;;;;;5051150;28;20244;-65
2021/10/09 03:55:17;;;;;;;14.70;10.03;;;7.00;99.90;;;;;;5051131;28;20209;-65
2021/10/09 03:57:45;;;;;;;11.87;9.50;;;7.00;99.90;;;;;;5050963;28;20222;-66
2021/10/09 04:00:14;;;;;;;14.00;10.47;;;7.00;99.90;;;;;;5051437;28;20229;-65
2021/10/09 04:02:41;;;;;;;11.70;9.70;;;7.00;99.90;;;;;;5051430;28;20205;-65
2021/10/09 04:05:08;;;;;;;12.77;9.33;;;7.00;99.90;;;;;;5051369;28;20232;-67
2021/10/09 04:07:35;;;;;;;12.33;9.83;;;7.00;99.90;;;;;;5051496;28;20609;-65
2021/10/09 04:10:03;;;;;;;13.17;10.23;;;7.00;99.90;;;;;;5051827;28;20236;-66
2021/10/09 04:12:30;;;;;;;15.10;9.80;;;7.00;99.90;;;;;;5051242;28;20689;-64
2021/10/09 04:14:57;;;;;;;15.60;9.77;;;7.00;99.90;;;;;;5051264;28;20217;-65
2021/10/09 04:17:24;;;;;;;13.93;10.23;;;7.00;99.90;;;;;;5051436;28;20225;-66
2021/10/09 04:19:50;;;;;;;12.67;10.10;;;6.90;99.90;;;;;;5051278;28;20232;-65
2021/10/09 04:22:17;;;;;;;14.10;10.03;;;6.90;99.90;;;;;;5051159;28;20213;-65
2021/10/09 04:24:44;;;;;;;13.50;9.83;;;6.90;99.90;;;;;;5051326;28;20217;-66
2021/10/09 04:27:12;;;;;;;11.27;9.30;;;7.00;99.90;;;;;;5051171;28;20524;-65
2021/10/09 04:29:39;;;;;;;17.00;10.50;;;7.00;99.90;;;;;;5051129;28;20237;-65
2021/10/09 04:32:06;;;;;;;17.83;9.80;;;6.90;99.90;;;;;;5051436;28;20275;-64
2021/10/09 04:34:33;;;;;;;12.40;9.57;;;6.90;99.90;;;;;;5051445;28;20205;-65
2021/10/09 04:36:59;;;;;;;12.37;9.60;;;6.90;99.90;;;;;;5050812;28;20581;-65
2021/10/09 04:39:26;;;;;;;12.80;9.00;;;6.80;99.90;;;;;;5050259;28;20237;-65
2021/10/09 04:41:53;;;;;;;14.33;10.30;;;6.80;99.90;;;;;;5051080;28;20209;-65
2021/10/09 04:44:22;;;;;;;14.50;10.43;;;6.80;99.90;;;;;;5050730;28;20217;-65
2021/10/09 04:46:49;;;;;;;13.10;9.40;;;6.80;99.90;;;;;;5051080;28;20209;-65
2021/10/09 04:49:16;;;;;;;11.93;9.37;;;6.80;99.90;;;;;;5050629;28;20213;-65
2021/10/09 04:51:42;;;;;;;16.87;11.47;;;6.80;99.90;;;;;;5050890;28;20673;-65
2021/10/09 04:54:09;;;;;;;19.67;11.87;;;6.80;99.90;;;;;;5051090;28;20221;-67
2021/10/09 04:56:36;;;;;;;13.63;9.70;;;6.80;99.90;;;;;;5053070;28;20630;-65
2021/10/09 04:59:03;;;;;;;12.63;9.60;;;6.80;99.90;;;;;;5054494;28;20225;-66
2021/10/09 05:01:31;;;;;;;13.13;9.63;;;6.80;99.90;;;;;;5054583;28;20240;-67
2021/10/09 05:03:58;;;;;;;14.40;9.23;;;6.80;99.90;;;;;;5053961;28;20205;-65
2021/10/09 05:06:25;;;;;;;14.00;10.03;;;6.80;99.90;;;;;;5054090;28;20216;-67
2021/10/09 05:08:51;;;;;;;15.87;9.80;;;6.70;99.90;;;;;;5054236;28;20202;-66
2021/10/09 05:11:18;;;;;;;17.53;10.43;;;6.80;99.90;;;;;;5054293;28;20604;-67
2021/10/09 05:13:45;;;;;;;14.50;9.33;;;6.80;99.90;;;;;;5054237;28;20206;-65
2021/10/09 05:16:12;;;;;;;21.27;14.70;;;6.80;99.90;;;;;;5054751;28;20688;-65
2021/10/09 05:18:40;;;;;;;16.20;10.87;;;6.80;99.90;;;;;;5054360;28;20225;-66
2021/10/09 05:21:07;;;;;;;21.27;14.47;;;6.80;99.90;;;;;;5054618;28;20264;-67
2021/10/09 05:23:34;;;;;;;16.50;11.03;;;6.80;99.90;;;;;;5054637;28;20221;-65
2021/10/09 05:26:01;;;;;;;13.80;9.80;;;6.80;99.90;;;;;;5054415;28;20205;-68
2021/10/09 05:28:35;;;;;;;17.97;10.50;;;6.80;99.90;;;;;;5053849;28;20213;-66
2021/10/09 05:31:02;;;;;;;14.07;9.77;;;6.80;99.90;;;;;;5053754;28;20233;-66
2021/10/09 05:33:37;;;;;;;12.73;9.80;;;6.70;99.90;;;;;;5053831;28;20209;-66
2021/10/09 05:36:06;;;;;;;15.20;10.37;;;6.70;99.90;;;;;;5054316;28;20750;-66
2021/10/09 05:38:34;;;;;;;15.60;10.50;;;6.70;99.90;;;;;;5054412;28;20236;-65
2021/10/09 05:41:00;;;;;;;12.53;9.67;;;6.70;99.90;;;;;;5053730;28;20271;-65
2021/10/09 05:43:28;;;;;;;20.23;13.80;;;6.70;99.90;;;;;;5054340;28;20724;-64
2021/10/09 05:45:55;;;;;;;15.13;11.10;;;6.70;99.90;;;;;;5054765;28;20206;-65
2021/10/09 05:48:21;;;;;;;25.27;16.33;;;6.70;99.90;;;;;;5055438;28;20198;-65
2021/10/09 05:50:53;;;;;;;20.97;13.53;;;6.80;99.90;;;;;;5055807;28;20252;-66
2021/10/09 05:53:42;;;;;;;14.47;10.43;;;6.80;99.90;;;;;;5055323;28;20212;-65
2021/10/09 05:56:13;;;;;;;16.23;9.97;;;6.80;99.90;;;;;;5054916;28;20216;-65
2021/10/09 05:58:48;;;;;;;17.67;10.63;;;6.90;99.90;;;;;;5054990;28;20229;-64
2021/10/09 06:43:09;;;;;;;12.73;9.90;;;13.70;99.90;;;;;;5052793;28;20696;-70
2021/10/09 06:59:30;;;;;;;16.23;9.30;;;18.20;99.90;;;;;;5029046;28;20758;-70
2021/10/09 07:01:57;;;;;;;11.23;8.88;;;18.70;99.90;;;;;;5052192;28;20705;-71
2021/10/09 07:04:24;;;;;;;15.68;9.02;;;19.10;99.90;;;;;;5052084;28;20304;-70
2021/10/09 07:06:52;;;;;;;14.90;9.48;;;19.60;99.90;;;;;;5052017;28;20201;-71
2021/10/09 07:09:19;;;;;;;15.60;8.93;;;19.80;99.90;;;;;;5052001;28;20296;-70
2021/10/09 07:11:45;;;;;;;20.00;13.93;;;20.00;99.90;;;;;;5051853;28;20209;-71
2021/10/09 07:14:12;;;;;;;14.50;9.50;;;20.20;99.80;;;;;;5051799;28;20589;-71
2021/10/09 07:16:40;;;;;;;13.90;8.57;;;20.30;99.70;;;;;;5051897;28;20205;-71
2021/10/09 07:19:07;;;;;;;12.05;8.68;;;20.50;99.40;;;;;;5050994;28;20237;-71
2021/10/09 07:21:33;;;;;;;10.60;8.05;;;20.50;99.00;;;;;;5052015;28;20229;-71
2021/10/09 07:24:00;;;;;;;12.40;8.35;;;20.40;98.90;;;;;;5051468;28;20212;-71
2021/10/09 07:26:27;;;;;;;11.13;9.50;;;20.00;98.90;;;;;;5052105;28;20209;-71
2021/10/09 07:28:54;;;;;;;16.60;11.68;;;19.20;99.60;;;;;;5052304;28;20266;-71
2021/10/09 07:31:21;;;;;;;16.45;8.88;;;18.40;99.90;;;;;;5052048;28;20244;-71
2021/10/09 07:33:49;;;;;;;10.90;8.07;;;17.50;99.90;;;;;;5051628;28;20216;-70
2021/10/09 07:36:16;;;;;;;11.80;8.87;;;16.70;99.90;;;;;;5052026;28;20688;-71
2021/10/09 07:38:43;;;;;;;11.70;8.80;;;16.00;99.90;;;;;;5052667;28;20314;-71
2021/10/09 07:41:10;;;;;;;19.57;14.73;;;15.40;99.90;;;;;;5052967;28;20225;-69
2021/10/09 07:43:37;;;;;;;20.93;13.80;;;15.00;99.90;;;;;;5052616;28;20210;-70
2021/10/09 07:46:03;;;;;;;15.73;10.90;;;14.60;99.90;;;;;;5053425;28;20202;-70
2021/10/09 07:48:30;;;;;;;12.17;9.97;;;14.30;99.90;;;;;;5052475;28;20217;-70
2021/10/09 07:50:58;;;;;;;18.20;11.30;;;14.10;99.90;;;;;;5051878;28;20225;-70
2021/10/09 07:53:25;;;;;;;16.43;10.90;;;13.80;99.90;;;;;;5051071;28;20212;-69
2021/10/09 07:55:51;;;;;;;14.57;10.50;;;13.60;99.90;;;;;;5052170;28;20216;-69
2021/10/09 07:58:19;;;;;;;13.63;10.07;;;13.50;99.90;;;;;;5052895;28;20216;-69
2021/10/09 08:00:46;;;;;;;16.67;10.57;;;13.40;99.90;;;;;;5053893;28;20279;-70
2021/10/09 08:03:13;;;;;;;17.00;10.63;;;13.30;99.90;;;;;;5052894;28;20397;-70
2021/10/09 08:05:39;;;;;;;15.50;11.83;;;13.30;99.90;;;;;;5051729;28;20512;-71
2021/10/09 08:08:07;;;;;;;19.87;12.43;;;13.30;99.90;;;;;;5052525;28;20202;-73
2021/10/09 08:10:35;;;;;;;18.97;11.37;;;13.30;99.90;;;;;;5052269;28;20229;-70
2021/10/09 08:13:02;;;;;;;15.73;12.00;;;13.30;99.90;;;;;;5051268;28;20582;-70
2021/10/09 08:15:28;;;;;;;17.77;11.90;;;13.30;99.90;;;;;;5051145;28;20305;-71
2021/10/09 08:17:55;;;;;;;17.47;11.30;;;13.40;99.90;;;;;;5051827;28;20259;-71
2021/10/09 08:20:23;;;;;;;16.23;11.33;;;13.40;99.90;;;;;;5050854;28;20237;-70
2021/10/09 08:22:58;;;;;;;16.07;11.10;;;13.20;99.90;;;;;;5051538;28;20217;-71
2021/10/09 08:25:55;;;;;;;17.03;11.63;;;13.20;99.90;;;;;;5051253;28;20248;-70
2021/10/09 08:36:36;;;;;;;14.30;11.00;;;13.30;99.90;;;;;;5055448;28;20327;-70
2021/10/09 08:39:04;;;;;;;15.17;11.33;;;13.30;99.90;;;;;;5054763;28;20260;-69
2021/10/09 08:41:32;;;;;;;15.37;11.63;;;13.40;99.90;;;;;;5055132;28;20241;-69
2021/10/09 08:43:59;;;;;;;15.23;10.70;;;13.50;99.90;;;;;;5054992;28;20297;-69
2021/10/09 08:46:25;;;;;;;16.53;10.70;;;13.60;99.90;;;;;;5054585;28;20712;-70
2021/10/09 08:48:53;;;;;;;17.23;10.70;;;13.60;99.90;;;;;;5054445;28;20206;-70
2021/10/09 08:51:21;;;;;;;16.50;11.27;;;13.70;99.90;;;;;;5054498;28;20233;-70
2021/10/09 08:53:48;;;;;;;17.33;10.83;;;13.70;99.90;;;;;;5054268;28;20217;-71
2021/10/09 08:56:29;;;;;;;12.97;10.67;;;13.80;99.90;;;;;;5054753;28;20697;-71
2021/10/09 08:59:12;;;;;;;14.30;10.90;;;13.80;99.90;;;;;;5054677;28;20229;-70
2021/10/09 09:07:36;;;;;;;15.43;10.10;;;14.00;99.90;;;;;;5053079;28;20679;-70
2021/10/09 09:27:04;;;;;;;17.13;9.67;;;14.80;99.90;;;;;;5054463;28;20232;-70
2021/10/09 09:32:38;;;;;;;15.80;9.80;;;14.70;99.90;;;;;;5054386;28;20228;-70
2021/10/09 09:40:39;;;;;;;13.83;9.83;;;15.10;99.90;;;;;;5054304;28;20236;-70
2021/10/09 09:43:07;;;;;;;13.57;9.23;;;15.20;99.90;;;;;;5053184;28;20320;-70
2021/10/09 09:45:34;;;;;;;14.90;9.47;;;15.10;99.90;;;;;;5054356;28;20205;-70
2021/10/09 09:48:04;;;;;;;16.90;8.97;;;15.20;99.90;;;;;;5053698;28;20216;-71
2021/10/09 09:50:32;;;;;;;14.63;9.13;;;15.30;99.90;;;;;;5053684;28;20222;-70
2021/10/09 09:53:00;;;;;;;11.87;8.17;;;15.30;99.90;;;;;;5053707;28;20214;-70
2021/10/09 09:55:27;;;;;;;14.77;8.67;;;15.30;99.90;;;;;;5054194;28;20279;-71
2021/10/09 09:57:54;;;;;;;13.27;9.23;;;15.30;99.90;;;;;;5053309;28;20205;-71
2021/10/09 10:00:21;;;;;;;14.47;8.60;;;15.30;99.90;;;;;;5053153;28;20233;-71
2021/10/09 10:02:51;;;;;;;13.27;8.63;;;15.50;99.90;;;;;;5053366;28;20206;-73
2021/10/09 10:05:19;;;;;;;14.77;8.70;;;15.60;99.90;;;;;;5053045;28;20704;-71
2021/10/09 10:07:48;;;;;;;13.47;9.20;;;15.70;99.90;;;;;;5053020;28;20206;-71
2021/10/09 10:10:16;;;;;;;12.17;9.00;;;15.80;99.90;;;;;;5053019;28;20310;-70
2021/10/09 10:12:44;;;;;;;12.97;8.03;;;15.80;99.90;;;;;;5052869;28;20259;-71
2021/10/09 10:15:13;;;;;;;10.40;8.27;;;15.80;99.90;;;;;;5052482;28;20430;-70
2021/10/09 10:17:41;;;;;;;11.50;8.13;;;15.80;99.90;;;;;;5052578;28;20212;-70
2021/10/09 10:20:10;;;;;;;17.17;8.60;;;15.90;99.90;;;;;;5052868;28;20318;-69
2021/10/09 10:22:58;;;;;;;13.27;8.50;;;15.90;99.90;;;;;;5053032;28;20669;-70
2021/10/09 10:25:46;;;;;;;11.77;8.07;;;15.90;99.90;;;;;;5052762;28;20205;-70
2021/10/09 10:28:17;;;;;;;12.40;8.30;;;16.00;99.90;;;;;;5048912;28;20205;-70
2021/10/09 10:30:46;;;;;;;11.60;8.43;;;16.10;99.90;;;;;;5052077;28;20230;-70
2021/10/09 10:33:29;;;;;;;13.93;7.83;;;16.20;99.90;;;;;;5052450;28;20241;-71
2021/10/09 10:35:56;;;;;;;11.10;7.97;;;16.30;99.90;;;;;;5052768;28;20245;-70
2021/10/09 10:38:53;;;;;;;12.00;7.70;;;16.40;99.90;;;;;;5053025;28;20214;-70
2021/10/09 10:41:40;;;;;;;13.53;8.30;;;16.40;99.90;;;;;;5049525;28;20735;-71
2021/10/09 10:44:08;;;;;;;10.93;7.97;;;16.40;99.90;;;;;;5052653;28;20666;-69
2021/10/09 10:46:43;;;;;;;14.47;8.33;;;16.50;99.90;;;;;;5052544;28;20290;-69
2021/10/09 10:49:15;;;;;;;13.73;8.73;;;16.60;99.90;;;;;;5052916;28;20209;-69
2021/10/09 10:51:47;;;;;;;13.57;8.70;;;16.60;99.90;;;;;;5052456;28;20727;-69
2021/10/09 10:57:19;;;;;;;12.87;8.60;;;16.80;99.90;;;;;;5052518;28;20560;-70
2021/10/09 10:59:49;;;;;;;10.53;7.97;;;16.90;99.90;;;;;;5052037;28;20233;-70
2021/10/09 11:02:18;;;;;;;11.77;7.63;;;16.80;99.90;;;;;;5052788;28;20206;-70
2021/10/09 11:04:46;;;;;;;11.83;7.83;;;16.80;99.90;;;;;;5051430;28;20239;-71
2021/10/09 11:07:13;;;;;;;13.90;8.00;;;16.90;99.90;;;;;;5051551;28;20205;-70
2021/10/09 11:09:42;;;;;;;11.30;7.97;;;16.90;99.90;;;;;;5051420;28;20225;-70
2021/10/09 11:12:27;;;;;;;12.27;8.20;;;17.00;99.90;;;;;;5051509;28;20205;-70
2021/10/09 11:15:06;;;;;;;8.93;6.73;;;17.00;99.90;;;;;;5051720;28;20209;-70
2021/10/09 11:17:35;;;;;;;10.65;7.63;;;17.00;99.90;;;;;;5051332;28;20213;-69
2021/10/09 11:20:03;;;;;;;11.35;7.45;;;17.10;99.90;;;;;;5051360;28;20233;-70
2021/10/09 11:22:42;;;;;;;9.40;7.37;;;17.10;99.90;;;;;;5051644;28;20209;-70
2021/10/09 11:25:21;;;;;;;12.27;7.63;;;17.20;99.90;;;;;;5051296;28;20212;-68
2021/10/09 11:27:48;;;;;;;10.53;7.63;;;17.20;99.90;;;;;;5051386;28;20233;-70
2021/10/09 11:30:14;;;;;;;10.00;7.23;;;17.30;99.90;;;;;;5051703;28;20233;-70
2021/10/09 11:32:43;;;;;;;11.43;7.70;;;17.30;99.90;;;;;;5051707;28;20483;-70
2021/10/09 11:35:11;;;;;;;10.87;7.50;;;17.40;99.90;;;;;;5051490;28;20212;-70
2021/10/09 11:37:46;;;;;;;11.37;7.33;;;17.50;99.90;;;;;;5051561;28;20216;-70
2021/10/09 11:40:14;;;;;;;8.87;6.73;;;17.30;99.90;;;;;;5051344;28;20240;-70
2021/10/09 11:42:50;;;;;;;8.30;6.07;;;17.30;99.90;;;;;;5051263;28;20661;-70
2021/10/09 11:45:21;;;;;;;11.30;7.70;;;17.30;99.90;;;;;;5051206;28;20209;-71
2021/10/09 11:56:07;;;;;;;11.48;6.78;;;17.80;99.90;;;;;;5051767;28;20209;-71
2021/10/09 11:58:34;;;;;;;9.07;6.30;;;17.80;99.90;;;;;;5051248;28;20251;-72
2021/10/09 12:01:00;;;;;;;10.40;6.77;;;17.90;99.90;;;;;;5050934;28;20236;-71
2021/10/09 12:03:33;;;;;;;15.23;6.97;;;17.90;99.90;;;;;;5051100;28;20209;-71
2021/10/09 12:06:03;;;;;;;11.05;6.38;;;17.90;99.90;;;;;;5052998;28;20212;-72
2021/10/09 12:08:32;;;;;;;10.05;6.50;;;18.00;99.90;;;;;;5055208;28;20213;-71
2021/10/09 12:11:15;;;;;;;11.60;6.38;;;18.10;99.90;;;;;;5055184;28;20253;-72
2021/10/09 12:13:50;;;;;;;12.77;6.40;;;18.10;99.90;;;;;;5054978;28;20639;-71
2021/10/09 12:16:17;;;;;;;9.90;6.10;;;18.00;99.90;;;;;;5054909;28;20227;-71
2021/10/09 12:18:48;;;;;;;11.38;6.68;;;18.10;99.90;;;;;;5054529;28;20677;-69
2021/10/09 12:21:15;;;;;;;8.70;6.40;;;18.00;99.90;;;;;;5054896;28;20716;-70
2021/10/09 12:23:42;;;;;;;8.73;6.20;;;18.00;99.90;;;;;;5055041;28;20255;-70
2021/10/09 12:26:15;;;;;;;8.57;6.25;;;18.20;99.90;;;;;;5054690;28;20217;-70
2021/10/09 12:29:08;;;;;;;9.27;6.47;;;18.20;99.90;;;;;;5054719;28;20284;-70
2021/10/09 12:31:36;;;;;;;10.35;6.80;;;18.20;99.90;;;;;;5112544;22;20285;-63
2021/10/09 12:34:03;;;;;;;10.80;6.30;;;18.30;99.90;;;;;;5094759;28;20211;-64
2021/10/09 12:36:34;;;;;;;13.88;8.82;;;18.30;99.90;;;;;;5094191;28;20254;-64
2021/10/09 12:39:23;;;;;;;9.63;6.45;;;18.30;99.60;;;;;;5094490;28;20216;-63
2021/10/09 12:41:52;;;;;;;10.18;5.85;;;18.30;99.60;;;;;;5094418;28;20219;-64
2021/10/09 12:44:19;;;;;;;8.27;6.20;;;18.30;99.40;;;;;;5094166;28;20208;-63
2021/10/09 12:46:46;;;;;;;9.15;6.30;;;18.30;99.30;;;;;;5094544;28;20622;-65
2021/10/09 12:49:14;;;;;;;10.05;5.97;;;18.30;99.10;;;;;;5093869;28;20212;-63
2021/10/09 12:51:42;;;;;;;10.30;6.38;;;18.30;98.50;;;;;;5094040;28;20270;-64
2021/10/09 12:54:09;;;;;;;7.63;5.68;;;18.30;98.30;;;;;;5093798;28;20580;-64
2021/10/09 12:56:37;;;;;;;11.15;6.20;;;18.30;98.30;;;;;;5094083;28;20230;-64
2021/10/09 12:59:05;;;;;;;10.05;6.40;;;18.30;98.60;;;;;;5093850;28;20209;-64
2021/10/09 13:01:32;;;;;;;8.65;5.90;;;18.40;98.90;;;;;;5093640;28;20246;-64
2021/10/09 13:03:59;;;;;;;8.88;6.47;;;18.40;98.30;;;;;;5093858;28;20787;-63
2021/10/09 13:06:25;;;;;;;11.05;6.72;;;18.50;98.30;;;;;;5094227;28;20608;-63
2021/10/09 13:08:52;;;;;;;11.27;7.13;;;18.50;98.40;;;;;;5093579;28;20238;-63
2021/10/09 13:11:23;;;;;;;12.52;6.63;;;18.60;97.90;;;;;;5093787;28;20307;-64
2021/10/09 13:13:50;;;;;;;11.10;6.70;;;18.50;98.40;;;;;;5093447;28;20214;-63
2021/10/09 13:16:18;;;;;;;10.00;6.68;;;18.40;98.50;;;;;;5093759;28;20207;-62
2021/10/09 13:18:45;;;;;;;12.80;6.83;;;18.50;98.30;;;;;;5090245;28;20444;-63
2021/10/09 13:21:12;;;;;;;9.77;5.68;;;18.60;98.10;;;;;;5093701;28;20639;-61
2021/10/09 13:23:39;;;;;;;8.93;5.90;;;18.60;98.30;;;;;;5078958;28;20573;-60
2021/10/09 13:26:06;;;;;;;9.82;5.95;;;18.50;98.30;;;;;;5073303;28;20212;-62
2021/10/09 13:28:36;;;;;;;10.30;6.28;;;18.50;98.30;;;;;;5073038;28;20228;-62
2021/10/09 13:31:03;;;;;;;7.47;6.15;;;18.60;98.30;;;;;;5073188;28;20323;-62
2021/10/09 13:33:31;;;;;;;8.25;6.22;;;18.60;97.90;;;;;;5073179;28;20252;-60
2021/10/09 13:35:58;;;;;;;12.55;6.53;;;18.60;97.60;;;;;;5083906;28;20224;-62
2021/10/09 13:38:29;;;;;;;10.63;6.32;;;18.50;97.70;;;;;;5093574;28;20200;-63
2021/10/09 13:40:56;;;;;;;9.38;6.47;;;18.50;97.60;;;;;;5093623;28;20228;-62
2021/10/09 13:43:23;;;;;;;7.95;6.35;;;18.60;97.60;;;;;;5092332;28;20211;-62
2021/10/09 13:45:49;;;;;;;11.07;6.30;;;18.60;97.60;;;;;;5092631;28;20298;-60
2021/10/09 13:48:16;;;;;;;8.70;6.07;;;18.60;97.90;;;;;;5092789;28;20208;-62
2021/10/09 13:50:47;;;;;;;12.57;6.30;;;18.70;97.50;;;;;;5093153;28;20289;-62
2021/10/09 13:53:13;;;;;;;7.82;6.20;;;18.70;98.00;;;;;;5092736;28;20731;-62
2021/10/09 13:55:42;;;;;;;8.32;6.25;;;18.70;97.50;;;;;;5092519;28;20200;-62
2021/10/09 13:58:09;;;;;;;9.30;6.32;;;18.80;97.50;;;;;;5082817;28;20205;-61
2021/10/09 14:00:37;;;;;;;9.25;5.90;;;18.70;97.70;;;;;;5072313;28;20232;-61
2021/10/09 14:03:04;;;;;;;9.60;5.30;;;18.60;97.60;;;;;;5072398;28;20216;-59
2021/10/09 14:05:31;;;;;;;8.93;5.68;;;18.60;97.60;;;;;;5072430;28;20205;-58
2021/10/09 14:07:59;;;;;;;9.07;6.13;;;18.80;97.80;;;;;;5072282;28;20201;-59
2021/10/09 14:10:26;;;;;;;9.95;6.55;;;18.90;97.80;;;;;;5072632;28;20221;-59
2021/10/09 14:12:53;;;;;;;7.95;6.32;;;18.90;98.10;;;;;;5072103;28;20254;-58
2021/10/09 14:15:20;;;;;;;14.70;6.85;;;19.00;98.10;;;;;;5072020;28;20204;-58
2021/10/09 14:17:47;;;;;;;7.10;5.93;;;18.90;98.10;;;;;;5072088;28;20676;-60
2021/10/09 14:20:13;;;;;;;9.73;6.10;;;19.00;98.10;;;;;;5072542;28;20283;-58
2021/10/09 14:22:40;;;;;;;12.80;5.95;;;18.80;98.40;;;;;;5072339;28;20295;-58
2021/10/09 14:25:11;;;;;;;12.77;6.37;;;18.80;98.20;;;;;;5072287;28;20212;-59
2021/10/09 14:27:38;;;;;;;8.65;6.43;;;18.80;98.20;;;;;;5072267;28;20201;-57
2021/10/09 14:30:07;;;;;;;8.88;5.70;;;18.80;98.60;;;;;;5071585;28;20286;-59
2021/10/09 14:32:35;;;;;;;10.70;5.97;;;18.80;98.10;;;;;;5072148;28;20579;-57
2021/10/09 14:35:02;;;;;;;11.00;5.88;;;18.80;97.70;;;;;;5071987;28;20292;-57
2021/10/09 14:37:29;;;;;;;9.57;6.25;;;18.80;97.50;;;;;;5072258;28;20262;-58
2021/10/09 14:39:56;;;;;;;7.97;5.80;;;18.80;97.00;;;;;;5072353;28;20228;-57